createdAt,value
2023-12-10T00:00:24.238Z,98606.81
2023-12-10T00:02:51.479Z,98597.00
2023-12-10T00:05:18.749Z,98592.72
2023-12-10T00:07:46.041Z,98608.44
2023-12-10T00:10:13.439Z,98605.56
2023-12-10T00:12:41.440Z,98613.53
2023-12-10T00:15:09.870Z,98616.19
2023-12-10T00:17:37.071Z,98617.00
2023-12-10T00:20:04.714Z,98624.19
2023-12-10T00:22:32.185Z,98637.47
2023-12-10T00:24:59.369Z,98643.00
2023-12-10T00:27:26.471Z,98650.97
2023-12-10T00:29:53.982Z,98663.22
2023-12-10T00:32:21.109Z,98657.09
2023-12-10T00:34:48.302Z,98674.66
2023-12-10T00:37:15.444Z,98693.47
2023-12-10T00:39:42.572Z,98697.97
2023-12-10T00:42:09.763Z,98712.28
2023-12-10T00:44:37.072Z,98704.31
2023-12-10T00:47:04.262Z,98717.38
2023-12-10T00:49:31.347Z,98726.19
2023-12-10T00:51:58.434Z,98724.13
2023-12-10T00:54:26.263Z,98732.09
2023-12-10T00:56:53.307Z,98738.06
2023-12-10T00:59:20.359Z,98742.56
2023-12-10T01:01:47.447Z,98755.63
2023-12-10T01:04:15.701Z,98763.59
2023-12-10T01:06:42.806Z,98762.78
2023-12-10T01:09:10.017Z,98772.19
2023-12-10T01:11:37.080Z,98772.78
2023-12-10T01:14:04.732Z,98782.41
2023-12-10T01:16:31.734Z,98778.75
2023-12-10T01:18:58.904Z,98793.66
2023-12-10T01:21:26.086Z,98800.59
2023-12-10T01:23:55.813Z,98803.06
2023-12-10T01:26:23.565Z,98798.38
2023-12-10T01:28:50.763Z,98807.78
2023-12-10T01:31:18.408Z,98811.25
2023-12-10T01:33:45.686Z,98828.84
2023-12-10T01:36:27.313Z,98835.78
2023-12-10T01:38:54.437Z,98837.41
2023-12-10T01:41:21.476Z,98848.91
2023-12-10T01:43:48.545Z,98848.91
2023-12-10T01:46:15.573Z,98856.88
2023-12-10T01:48:44.776Z,98848.91
2023-12-10T01:51:12.617Z,98861.16
2023-12-10T01:53:41.597Z,98868.31
2023-12-10T01:56:10.540Z,98872.59
2023-12-10T01:58:40.086Z,98866.47
2023-12-10T02:01:07.393Z,98870.78
2023-12-10T02:03:35.141Z,98874.44
2023-12-10T02:06:03.652Z,98890.19
2023-12-10T02:08:31.417Z,98878.75
2023-12-10T02:10:59.240Z,98884.06
2023-12-10T02:13:27.162Z,98881.41
2023-12-10T02:15:54.702Z,98881.41
2023-12-10T02:18:22.063Z,98894.69
2023-12-10T02:20:50.723Z,98907.16
2023-12-10T02:23:28.046Z,98921.50
2023-12-10T02:25:55.153Z,98924.31
2023-12-10T02:28:23.578Z,98926.16
2023-12-10T02:30:51.072Z,98934.13
2023-12-10T02:33:18.423Z,98933.31
2023-12-10T02:35:45.485Z,98949.47
2023-12-10T02:38:12.541Z,98949.47
2023-12-10T02:40:39.534Z,98960.13
2023-12-10T02:43:06.944Z,98969.09
2023-12-10T02:45:34.016Z,98972.59
2023-12-10T02:48:01.192Z,98972.59
2023-12-10T02:50:28.254Z,98993.03
2023-12-10T02:52:55.307Z,99000.19
2023-12-10T02:55:22.327Z,99012.84
2023-12-10T02:57:49.467Z,99018.97
2023-12-10T03:00:17.452Z,99009.13
2023-12-10T03:02:44.769Z,99020.09
2023-12-10T03:05:11.878Z,99011.47
2023-12-10T03:07:38.902Z,99016.13
2023-12-10T03:10:06.601Z,99005.00
2023-12-10T03:12:33.993Z,99010.47
2023-12-10T03:15:01.875Z,99024.72
2023-12-10T03:17:29.135Z,99023.88
2023-12-10T03:19:56.172Z,99027.28
2023-12-10T03:22:23.166Z,99037.84
2023-12-10T03:24:50.283Z,99044.53
2023-12-10T03:27:17.585Z,99032.84
2023-12-10T03:29:44.583Z,99028.97
2023-12-10T03:32:11.605Z,99024.00
2023-12-10T03:34:38.744Z,99028.91
2023-12-10T03:37:05.835Z,99019.47
2023-12-10T03:39:32.904Z,99013.53
2023-12-10T03:42:00.055Z,99013.53
2023-12-10T03:44:27.100Z,99006.59
2023-12-10T03:46:54.096Z,99003.94
2023-12-10T03:49:21.164Z,99019.84
2023-12-10T03:51:48.258Z,99011.06
2023-12-10T03:54:15.315Z,99026.19
2023-12-10T03:56:42.555Z,99027.81
2023-12-10T03:59:09.589Z,99043.75
2023-12-10T04:01:36.601Z,99052.72
2023-12-10T04:04:04.007Z,99070.47
2023-12-10T04:06:31.170Z,99070.47
2023-12-10T04:08:58.144Z,99072.94
2023-12-10T04:11:25.611Z,99082.72
2023-12-10T04:13:52.690Z,99072.31
2023-12-10T04:16:32.880Z,99067.81
2023-12-10T04:18:59.959Z,99080.06
2023-12-10T04:21:27.118Z,99079.25
2023-12-10T04:23:54.150Z,99081.91
2023-12-10T04:26:21.472Z,99073.94
2023-12-10T04:28:48.934Z,99077.41
2023-12-10T04:31:16.417Z,99087.22
2023-12-10T04:33:45.765Z,99097.81
2023-12-10T04:36:13.942Z,99099.47
2023-12-10T04:38:41.378Z,99104.78
2023-12-10T04:41:08.536Z,99113.34
2023-12-10T04:43:35.581Z,99112.53
2023-12-10T04:46:02.581Z,99120.31
2023-12-10T04:48:29.648Z,99115.66
2023-12-10T04:50:56.744Z,99124.44
2023-12-10T04:53:23.730Z,99128.53
2023-12-10T04:55:50.784Z,99122.84
2023-12-10T04:58:17.780Z,99126.13
2023-12-10T05:00:45.305Z,99126.56
2023-12-10T05:03:12.509Z,99126.41
2023-12-10T05:05:39.716Z,99128.03
2023-12-10T05:08:07.347Z,99126.00
2023-12-10T05:10:34.382Z,99133.63
2023-12-10T05:13:01.702Z,99134.44
2023-12-10T05:15:28.953Z,99136.06
2023-12-10T05:17:56.239Z,99143.84
2023-12-10T05:20:23.302Z,99141.19
2023-12-10T05:22:50.551Z,99149.78
2023-12-10T05:25:17.549Z,99147.13
2023-12-10T05:27:44.677Z,99158.56
2023-12-10T05:30:12.935Z,99172.66
2023-12-10T05:32:40.169Z,99168.34
2023-12-10T05:35:07.405Z,99167.53
2023-12-10T05:37:34.364Z,99187.13
2023-12-10T05:40:01.611Z,99173.25
2023-12-10T05:42:29.490Z,99179.56
2023-12-10T05:44:56.765Z,99188.34
2023-12-10T05:47:24.045Z,99187.69
2023-12-10T05:49:51.085Z,99204.63
2023-12-10T05:52:18.237Z,99199.31
2023-12-10T05:54:45.291Z,99197.69
2023-12-10T05:57:12.301Z,99201.34
2023-12-10T05:59:39.276Z,99201.34
2023-12-10T06:02:06.288Z,99207.66
2023-12-10T06:04:33.478Z,99224.63
2023-12-10T06:07:00.688Z,99235.03
2023-12-10T06:09:27.954Z,99228.91
2023-12-10T06:11:54.968Z,99239.53
2023-12-10T06:14:22.042Z,99238.50
2023-12-10T06:16:49.016Z,99249.13
2023-12-10T06:19:16.164Z,99256.06
2023-12-10T06:21:43.272Z,99262.22
2023-12-10T06:24:10.323Z,99261.19
2023-12-10T06:26:37.327Z,99260.19
2023-12-10T06:29:04.706Z,99261.84
2023-12-10T06:31:31.831Z,99261.66
2023-12-10T06:33:58.892Z,99268.63
2023-12-10T06:36:25.954Z,99279.03
2023-12-10T06:38:52.963Z,99288.84
2023-12-10T06:41:19.966Z,99279.84
2023-12-10T06:43:47.640Z,99290.47
2023-12-10T06:46:18.335Z,99293.13
2023-12-10T06:48:45.904Z,99288.84
2023-12-10T06:51:13.118Z,99290.66
2023-12-10T06:53:41.221Z,99294.16
2023-12-10T06:56:09.596Z,99297.81
2023-12-10T06:58:36.661Z,99309.25
2023-12-10T07:01:04.972Z,99303.13
2023-12-10T07:03:32.077Z,99312.09
2023-12-10T07:06:00.357Z,99316.59
2023-12-10T07:08:27.539Z,99321.91
2023-12-10T07:10:54.605Z,99314.13
2023-12-10T07:13:21.680Z,99316.78
2023-12-10T07:15:48.770Z,99317.75
2023-12-10T07:18:16.131Z,99311.63
2023-12-10T07:20:43.316Z,99319.59
2023-12-10T07:23:11.112Z,99318.16
2023-12-10T07:25:38.120Z,99321.81
2023-12-10T07:28:05.183Z,99335.09
2023-12-10T07:30:32.232Z,99336.91
2023-12-10T07:32:59.276Z,99340.41
2023-12-10T07:35:26.286Z,99346.34
2023-12-10T07:37:53.297Z,99345.50
2023-12-10T07:40:20.963Z,99347.97
2023-12-10T07:42:47.995Z,99349.63
2023-12-10T07:45:15.064Z,99344.31
2023-12-10T07:47:42.259Z,99362.72
2023-12-10T07:50:09.642Z,99352.94
2023-12-10T07:52:36.700Z,99365.19
2023-12-10T07:55:04.010Z,99374.63
2023-12-10T07:57:31.297Z,99373.44
2023-12-10T07:59:58.310Z,99379.19
2023-12-10T08:02:25.361Z,99387.63
2023-12-10T08:04:52.546Z,99379.28
2023-12-10T08:07:19.540Z,99368.31
2023-12-10T08:09:47.079Z,99369.56
2023-12-10T08:12:14.112Z,99380.81
2023-12-10T08:14:41.128Z,99373.31
2023-12-10T08:17:08.130Z,99386.22
2023-12-10T08:19:35.737Z,99389.34
2023-12-10T08:22:03.014Z,99390.63
2023-12-10T08:24:30.312Z,99392.09
2023-12-10T08:26:57.362Z,99386.38
2023-12-10T08:29:24.405Z,99406.47
2023-12-10T08:31:51.478Z,99407.91
2023-12-10T08:34:18.570Z,99404.09
2023-12-10T08:36:45.712Z,99398.56
2023-12-10T08:39:13.768Z,99400.03
2023-12-10T08:41:40.883Z,99399.69
2023-12-10T08:44:07.937Z,99413.59
2023-12-10T08:46:34.973Z,99408.91
2023-12-10T08:49:02.140Z,99408.75
2023-12-10T08:51:29.513Z,99419.19
2023-12-10T08:53:56.778Z,99424.09
2023-12-10T08:56:24.457Z,99419.63
2023-12-10T08:58:51.471Z,99425.41
2023-12-10T09:01:18.512Z,99437.66
2023-12-10T09:03:46.469Z,99437.66
2023-12-10T09:06:14.049Z,99430.31
2023-12-10T09:08:41.506Z,99431.97
2023-12-10T09:11:08.505Z,99448.56
2023-12-10T09:13:38.331Z,99436.09
2023-12-10T09:16:07.441Z,99451.03
2023-12-10T09:18:34.629Z,99444.50
2023-12-10T09:21:02.489Z,99449.66
2023-12-10T09:23:29.497Z,99468.09
2023-12-10T09:25:56.482Z,99466.06
2023-12-10T09:28:23.973Z,99457.06
2023-12-10T09:30:51.029Z,99457.72
2023-12-10T09:33:18.688Z,99460.00
2023-12-10T09:35:45.930Z,99464.09
2023-12-10T09:38:13.603Z,99473.56
2023-12-10T09:40:40.605Z,99456.59
2023-12-10T09:43:07.801Z,99470.50
2023-12-10T09:45:35.091Z,99464.00
2023-12-10T09:48:03.648Z,99462.81
2023-12-10T09:50:33.577Z,99468.75
2023-12-10T09:53:00.560Z,99475.72
2023-12-10T09:55:27.635Z,99476.19
2023-12-10T09:57:54.631Z,99473.31
2023-12-10T10:00:22.259Z,99470.66
2023-12-10T10:02:49.256Z,99464.31
2023-12-10T10:05:17.393Z,99466.63
2023-12-10T10:07:44.479Z,99467.63
2023-12-10T10:10:14.437Z,99467.44
2023-12-10T10:12:44.239Z,99475.44
